Flight Track Log - Related Links

Times and Time Zones

All times are in EDT time to prevent confusion due to time zone crossing. See the UCA3598 flight status page for this flight to view local times or setup timezone preferences in your user account.

Time Position Orientation Groundspeed Altitude Reporting Facility
EDT Latitude Longitude Course Direction KTS MPH feet Rate Location/Type
Fri 10:23:28 PM 38.9500 -77.5167 311° West 152 175 2,000  Level Potomac TRACON
Fri 10:24:28 PM 38.9833 -77.5667 311° West 164 189 3,400 1,232 Climbing Potomac TRACON
Fri 10:25:59 PM 39.0428 -77.5906 343° North 189 217 5,100 1,289 Climbing Washington Center
Fri 10:26:57 PM 39.0931 -77.5761 13° North 189 217 6,600 1,271 Climbing Washington Center
Fri 10:27:57 PM 39.1389 -77.5664 North 184 212 7,600 1,041 Climbing Washington Center
Fri 10:28:58 PM 39.1933 -77.5547 North 184 212 8,700 984 Climbing Washington Center
Fri 10:29:59 PM 39.2497 -77.5428 North 189 217 9,600 942 Climbing Washington Center
Fri 10:30:59 PM 39.3106 -77.5283 10° North 205 236 10,600 1,050 Climbing Washington Center
Fri 10:31:59 PM 39.3711 -77.5164 North 211 243 11,700 1,109 Climbing Washington Center
Fri 10:32:58 PM 39.4381 -77.5022 North 221 254 12,800 1,244 Climbing Washington Center
Fri 10:35:12 PM 39.5878 -77.4631 11° North 233 268 15,700 1,175 Climbing New York Center
Fri 10:36:12 PM 39.6500 -77.4339 20° North 228 262 16,600 843 Climbing New York Center
Fri 10:37:13 PM 39.7144 -77.4022 21° North 235 270 17,400 600 Climbing New York Center
Fri 10:38:12 PM 39.7786 -77.3706 21° North 240 276 17,800 706 Climbing New York Center
Fri 10:39:12 PM 39.8453 -77.3389 20° North 249 287 18,800 600 Climbing New York Center
Fri 10:40:12 PM 39.9094 -77.3069 21° North 244 281 19,000 100 Climbing New York Center
Fri 10:41:12 PM 39.9825 -77.2706 21° North 263 303 19,000  Level New York Center
Fri 10:42:12 PM 40.0553 -77.2339 21° North 269 310 19,000  Level New York Center
Fri 10:43:12 PM 40.1236 -77.2022 20° North 275 316 19,000  Level New York Center
Fri 10:44:12 PM 40.2053 -77.1581 22° Northeast 275 316 19,000  Level New York Center
Fri 10:45:12 PM 40.2717 -77.1261 20° North 281 323 19,000  Level New York Center
Fri 10:46:12 PM 40.3553 -77.0819 22° Northeast 281 323 19,000  Level New York Center
Fri 10:47:12 PM 40.4239 -77.0472 21° North 286 329 19,000  Level New York Center
Fri 10:48:12 PM 40.5075 -77.0058 21° North 286 329 19,000  Level New York Center
Fri 10:49:12 PM 40.5758 -76.9711 21° North 286 329 19,000  Level New York Center
Fri 10:50:12 PM 40.6575 -76.9292 21° North 281 323 19,000  Level New York Center
Fri 10:51:12 PM 40.7239 -76.8939 22° Northeast 281 323 19,000  Level New York Center
Fri 10:52:12 PM 40.8072 -76.8522 21° North 281 323 19,000  Level New York Center
Fri 10:53:12 PM 40.8714 -76.8194 21° North 276 318 19,000  Level New York Center
Fri 10:54:12 PM 40.9464 -76.7794 22° Northeast 282 325 19,000  Level New York Center
Fri 10:55:12 PM 41.0233 -76.7394 21° North 282 325 19,000  Level New York Center
Fri 10:56:12 PM 41.0983 -76.6992 22° Northeast 282 325 19,000  Level New York Center
Fri 10:57:12 PM 41.1819 -76.6542 22° Northeast 282 325 19,000  Level New York Center
Fri 10:58:12 PM 41.2503 -76.6186 21° North 282 325 19,000  Level New York Center
Fri 10:59:12 PM 41.3250 -76.5808 21° North 282 325 19,000  Level New York Center
Fri 11:00:12 PM 41.4086 -76.5356 22° Northeast 282 325 19,000  Level New York Center
Fri 11:01:12 PM 41.4856 -76.4950 22° Northeast 282 325 19,000  Level New York Center
Fri 11:02:12 PM 41.5603 -76.4569 21° North 282 325 19,000 -500 Level New York Center
Fri 11:03:12 PM 41.6328 -76.4217 20° North 287 330 18,000 -1,150 Descending New York Center
Fri 11:04:12 PM 41.7161 -76.3758 22° Northeast 304 350 16,700 -1,550 Descending New York Center
Fri 11:05:12 PM 41.8058 -76.3278 22° Northeast 315 362 14,900 -1,700 Descending New York Center
Fri 11:06:12 PM 41.8850 -76.2842 22° Northeast 315 362 13,300 -1,650 Descending New York Center
Fri 11:07:12 PM 41.9608 -76.2625 12° North 293 337 11,600 -1,650 Descending New York Center
Fri 11:08:12 PM 42.0175 -76.2533 North 251 289 10,000 -1,650 Descending New York Center
Fri 11:09:12 PM 42.0850 -76.2367 10° North 231 266 8,300 -1,500 Descending New York Center
Fri 11:10:12 PM 42.1406 -76.2047 23° Northeast 217 250 7,000 -1,150 Descending New York Center
Fri 11:11:12 PM 42.1864 -76.1583 37° Northeast 205 236 6,000 -1,050 Descending New York Center
Fri 11:12:12 PM 42.2242 -76.1053 46° Northeast 199 229 4,900 -992 Descending New York Center
Fri 11:13:13 PM 42.2550 -76.0658 43° Northeast 179 206 4,000 -800 Descending New York Center
Fri 11:14:12 PM 42.2569 -76.0211 87° East 119 137 3,300 -908 Descending New York Center
Fri 11:15:12 PM 42.2331 -75.9997 146° Southeast 97 112 2,200 2,850 Descending New York Center
Fri 11:16:12 PM 42.2264 -75.9600 103° East 97 112 9,000 3,400 Climbing New York Center
Fri 11:17:12 PM 42.2175 -75.9256 109° East 97 112 9,000  Level New York Center

Login

Don't have an account? Register now (free) for customized features, flight alerts, and more!